»·PEaware :: N155SH KPSP-KVNY

N155SH :: KPSP-KVNY

FLIGHT INFORMATION

Flight Status: Arrived
Operator: Privately registered:
United States
More flights under this callsign
Pilot: Tyler D. (629)
Aircraft: ECLIPSE 500
(EA50)
More flights by this aircraft type
Origin: KPSP Palm Springs Intl
United States
Destination: KVNY Van Nuys
United States
More flights between these airports :: More routes between these airports
Route: +CATH1 PSP V388 DEWAY POM VNY
File this flight plan on PilotEdge
Remarks: TEC route PSPP2
Altitude:
(Current/Filed)
12,000ft
Speed:
(Current/Filed)
230kts
Departed: 09-May-19 09:31 PM
Arrived: 09-May-19 10:13 PM
Distance/Time
Traveled:
101nm/0:41
Distance/Time
To Go:
Arrived

Flight Plot

Page will automatically refresh every two minutes.

Flight plan parsing failed; only flown route is shown


Map Options




Map Legend


Flown Route
Filed Route
Departure Airport
Arrival Airport
Navaid (VOR, NDB)
Fix

Horizontal Profiles

Position Reports

Time Latitude Longitude Heading Altitude Ground
Speed
09-May-19 21:13 33.821776 -116.496919 55 394ft 0kts
09-May-19 21:14 33.821776 -116.496919 55 394ft 0kts
09-May-19 21:15 33.821776 -116.496919 55 394ft 0kts
09-May-19 21:16 33.821776 -116.496919 55 394ft 0kts
09-May-19 21:17 33.821776 -116.496919 55 394ft 0kts
09-May-19 21:18 33.821776 -116.496919 55 394ft 0kts
09-May-19 21:19 33.821776 -116.496919 55 394ft 0kts
09-May-19 21:20 33.821776 -116.496919 55 394ft 0kts
09-May-19 21:21 33.821776 -116.496919 55 394ft 0kts
09-May-19 21:22 33.821776 -116.496919 55 394ft 0kts
09-May-19 21:23 33.821776 -116.496919 55 394ft 0kts
09-May-19 21:24 33.821776 -116.496919 55 394ft 0kts
09-May-19 21:25 33.821776 -116.496919 55 394ft 0kts
09-May-19 21:26 33.821776 -116.496919 55 394ft 0kts
09-May-19 21:27 33.821511 -116.496441 132 392ft 6kts
09-May-19 21:28 33.819297 -116.496997 236 391ft 4kts
09-May-19 21:29 33.819226 -116.497113 233 391ft 0kts
09-May-19 21:30 33.821344 -116.500274 323 400ft 65kts
09-May-19 21:31 33.850094 -116.524809 320 1729ft 168kts
09-May-19 21:32 33.886079 -116.556113 323 4833ft 151kts
09-May-19 21:33 33.900228 -116.532812 133 6948ft 166kts
09-May-19 21:34 33.878634 -116.478034 94 8926ft 206kts
09-May-19 21:35 33.864134 -116.411861 102 11176ft 210kts
09-May-19 21:36 33.901946 -116.356511 1 11882ft 295kts
09-May-19 21:38 33.936793 -116.438474 271 12124ft 335kts
09-May-19 21:39 33.941479 -116.546673 271 12001ft 320kts
09-May-19 21:40 33.945636 -116.656954 270 12003ft 328kts
09-May-19 21:41 33.952105 -116.766119 276 12001ft 329kts
09-May-19 21:42 33.965879 -116.874716 277 12000ft 328kts
09-May-19 21:43 33.979634 -116.983374 277 12000ft 328kts
09-May-19 21:44 33.993299 -117.091923 277 12000ft 327kts
09-May-19 21:45 34.006730 -117.199351 277 11065ft 314kts
09-May-19 21:46 34.019318 -117.300979 277 9565ft 302kts
09-May-19 21:47 34.031423 -117.399266 277 8865ft 292kts
09-May-19 21:48 34.043079 -117.494515 277 8863ft 284kts
09-May-19 21:49 34.054570 -117.588651 277 8865ft 286kts
09-May-19 21:50 34.066296 -117.686252 277 8863ft 297kts
09-May-19 21:51 34.078220 -117.785364 278 8853ft 299kts
09-May-19 21:52 34.098473 -117.883334 283 8884ft 298kts
09-May-19 21:53 34.118432 -117.979393 283 8944ft 292kts
09-May-19 21:54 34.138117 -118.074529 283 8992ft 293kts
09-May-19 21:55 34.157903 -118.170815 283 8999ft 296kts
09-May-19 21:56 34.176336 -118.263613 271 8988ft 259kts
09-May-19 21:57 34.168104 -118.348929 262 8450ft 265kts
09-May-19 21:58 34.166266 -118.430241 300 6425ft 234kts
09-May-19 21:58 34.194272 -118.484338 302 6011ft 226kts
09-May-19 22:00 34.236197 -118.565358 302 6009ft 250kts
09-May-19 22:01 34.292745 -118.596500 357 6010ft 242kts
09-May-19 22:02 34.365244 -118.602613 357 6006ft 253kts
09-May-19 22:03 34.427400 -118.607977 357 6009ft 212kts
09-May-19 22:04 34.484115 -118.600125 61 6014ft 210kts
09-May-19 22:05 34.488180 -118.536693 139 6057ft 180kts
09-May-19 22:05 34.449497 -118.512149 164 5409ft 202kts
09-May-19 22:07 34.391220 -118.508047 176 4835ft 159kts
09-May-19 22:07 34.353070 -118.504240 176 3945ft 167kts
09-May-19 22:09 34.301096 -118.499064 177 3027ft 161kts
09-May-19 22:09 34.268481 -118.495947 176 2203ft 130kts
09-May-19 22:10 34.235517 -118.492809 176 1375ft 106kts
09-May-19 22:11 34.209369 -118.490270 177 805ft 55kts
09-May-19 22:12 34.204701 -118.490289 199 805ft 16kts
09-May-19 22:13 34.203790 -118.491352 218 805ft 5kts
09-May-19 22:14 34.203497 -118.491555 179 805ft 0kts

Navigation Log

Ident Type
Flight plan parsing failed, navigation log unavailable